• Join FlightAware (Why Join?)
  • Login
  • US Flag GB Flag 
20:02 EDT


 

Airport Tracker/Info


-or-


 

Live Flight TrackerFlight Track Log ✈ AWE1940 ✈ 06-May-2013 ✈ KCLT - KALB

Flight Track Log - Related Links

Times and Time Zones

All times are in EDT time to prevent confusion due to time zone crossing. See the AWE1940 flight status page for this flight to view local times or setup timezone preferences in your user account.

Time Position Orientation Groundspeed Altitude Reporting Facility
EDT Latitude Longitude Course Direction KTS MPH feet Rate Location/Type
22:39 35.1911 -80.9508 13° North 168 193 1,900  Level Atlanta Center
22:41 35.1325 -81.0217 225° Southwest 255 293 6,700 2,160 Climbing Atlanta Center
22:41 35.1683 -81.0356 342° North 305 351 7,500 900 Climbing Atlanta Center
22:42 35.2768 -81.1862 68° East  Level FlightAware Approximate
22:42 35.2514 -81.0200 North 322 371 8,200  Level Atlanta Center
22:43 35.3530 -81.0573 52° Northeast  Level FlightAware Approximate
22:43 35.3406 -80.9964 12° North 307 353 10,400  Level Atlanta Center
22:44 35.4482 -80.9574 13° North  Level FlightAware Approximate
22:44 35.4339 -80.9800 North 315 362 12,800  Level Atlanta Center
22:45 35.5392 -81.0119 346° North 353 406 15,600 2,700 Climbing Atlanta Center
22:46 35.6483 -81.0411 348° North 387 445 18,300 2,460 Climbing Atlanta Center
22:47 35.7533 -81.0678 348° North 414 476 20,600 2,160 Climbing Atlanta Center
22:48 35.8728 -81.0994 348° North 427 491 22,700 1,620 Climbing Atlanta Center
22:49 36.0072 -81.1331 349° North 432 497 23,900 1,500 Climbing Atlanta Center
22:50 36.1311 -81.1672 347° North 444 511 25,800 1,800 Climbing Atlanta Center
22:51 36.2611 -81.2011 348° North 458 527 27,500 1,500 Climbing Atlanta Center
22:52 36.3953 -81.2350 349° North 479 551 28,900 1,800 Climbing Atlanta Center
22:53 36.5275 -81.2719 347° North 484 557 31,200 2,040 Climbing Atlanta Center
22:54 36.6578 -81.3061 348° North 484 557 33,000 1,680 Climbing Atlanta Center
22:56 36.9156 -81.3758 348° North 465 535 36,400 1,260 Climbing Indianapolis Center
22:58 37.0264 -81.4047 348° North 448 516 37,000 240 Climbing Indianapolis Center
22:59 37.1506 -81.4389 348° North 454 522 37,000  Level Indianapolis Center
23:00 37.2764 -81.4650 351° North 459 528 37,000  Level Indianapolis Center
23:01 37.4006 -81.4244 15° North 464 534 37,000  Level Indianapolis Center
23:02 37.5442 -81.3708 16° North 459 528 37,000  Level Indianapolis Center
23:03 37.6619 -81.3269 16° North 455 524 37,000  Level Indianapolis Center
23:04 37.7806 -81.2831 16° North 454 522 37,000  Level Indianapolis Center
23:05 37.9117 -81.2350 16° North 449 517 37,000  Level Indianapolis Center
23:06 38.0311 -81.1897 17° North 448 516 37,000  Level Indianapolis Center
23:07 38.1492 -81.1450 17° North 445 512 37,000  Level Indianapolis Center
23:08 38.2689 -81.1000 16° North 449 517 37,000  Level Indianapolis Center
23:09 38.3892 -81.0547 16° North 452 520 37,000  Level Indianapolis Center
23:10 38.5086 -81.0086 17° North 452 520 37,000  Level Indianapolis Center
23:11 38.6281 -80.9622 17° North 452 520 37,000  Level Indianapolis Center
23:12 38.7692 -80.9072 17° North 446 513 37,000  Level Indianapolis Center
23:13 38.8872 -80.8628 16° North 445 512 37,000  Level Indianapolis Center
23:14 39.0064 -80.8131 18° North 449 517 37,000  Level Indianapolis Center
23:15 39.0919 -80.7061 44° Northeast 432 497 37,000  Level Indianapolis Center
23:16 39.1725 -80.5928 47° Northeast 430 495 37,000  Level Indianapolis Center
23:17 39.2542 -80.4783 47° Northeast 432 497 37,000  Level Indianapolis Center
23:18 39.3506 -80.3839 37° Northeast 440 506 37,000  Level Indianapolis Center
23:19 39.4597 -80.3081 28° Northeast 445 512 37,000  Level Indianapolis Center
23:20 39.5478 -80.2492 27° Northeast 435 501 37,000  Level Cleveland Center
23:21 39.6222 -80.1358 50° Northeast 417 480 37,000  Level Cleveland Center
23:22 39.6967 -80.0164 51° Northeast 412 474 37,000  Level Cleveland Center
23:23 39.7669 -79.9025 51° Northeast 412 474 37,000  Level Cleveland Center
23:24 39.8392 -79.7856 51° Northeast 412 474 37,000  Level Cleveland Center
23:25 39.9194 -79.6547 51° Northeast 413 475 37,000  Level Cleveland Center
23:26 39.9914 -79.5372 51° Northeast 413 475 37,000  Level Cleveland Center
23:27 40.0653 -79.4194 51° Northeast 413 475 37,000  Level Cleveland Center
23:28 40.1228 -79.3178 53° Northeast 418 481 37,000  Level Cleveland Center
23:29 40.2025 -79.1886 51° Northeast 418 481 37,000  Level Cleveland Center
23:30 40.2739 -79.0700 52° Northeast 418 481 37,000  Level Cleveland Center
23:31 40.3472 -78.9486 52° Northeast 418 481 37,000  Level Cleveland Center
23:32 40.4186 -78.8294 52° Northeast 418 481 37,000  Level Cleveland Center
23:34 40.5636 -78.5853 52° Northeast 424 488 37,000  Level New York Center
23:35 40.6364 -78.4647 51° Northeast 424 488 37,000  Level New York Center
23:36 40.7089 -78.3414 52° Northeast 424 488 37,000  Level New York Center
23:37 40.7814 -78.2178 52° Northeast 424 488 37,000  Level New York Center
23:38 40.8464 -78.1097 51° Northeast 424 488 37,000  Level New York Center
23:39 40.9186 -77.9883 52° Northeast 424 488 37,000 -420 Level New York Center
23:40 40.9786 -77.8544 59° Northeast 413 475 36,200 -900 Descending New York Center
23:41 41.0386 -77.7203 59° Northeast 413 475 35,300 -960 Descending New York Center
23:42 41.0989 -77.5833 60° Northeast 418 481 34,300 -960 Descending New York Center
23:43 41.1608 -77.4461 59° Northeast 423 487 33,400 -1,020 Descending New York Center
23:44 41.2275 -77.2953 60° Northeast 423 487 32,300 -1,020 Descending New York Center
23:45 41.2869 -77.1603 60° Northeast 423 487 31,400 -960 Descending New York Center
23:46 41.3467 -77.0194 61° Northeast 423 487 30,400 -1,020 Descending New York Center
23:47 41.4081 -76.8786 60° Northeast 428 493 29,500 -840 Descending New York Center
23:48 41.4694 -76.7344 60° Northeast 428 493 28,800 -900 Descending New York Center
23:50 41.6300 -76.3622 60° Northeast 450 518 26,200 -960 Descending Boston Center
23:51 41.6911 -76.2214 60° Northeast 444 511 25,200 -960 Descending Boston Center
23:52 41.7478 -76.0800 62° Northeast 444 511 24,300 -600 Descending Boston Center
23:53 41.8064 -75.9386 61° Northeast 439 505 24,000 -180 Descending Boston Center
23:54 41.8650 -75.7994 60° Northeast 439 505 24,000  Level Boston Center
23:55 41.9233 -75.6547 62° Northeast 439 505 24,000  Level Boston Center
23:56 41.9836 -75.5125 60° Northeast 433 498 24,000  Level Boston Center
23:57 42.0417 -75.3700 61° Northeast 433 498 24,000  Level Boston Center
23:58 42.1036 -75.2272 60° Northeast 433 498 24,000  Level Boston Center
23:59 42.1672 -75.0900 58° Northeast 433 498 24,000 -240 Level Boston Center
00:00 42.2331 -74.9525 57° Northeast 433 498 23,600 -1,680 Descending Boston Center
00:01 42.2964 -74.8147 58° Northeast 438 504 20,700 -3,000 Descending Boston Center
00:02 42.3533 -74.6792 60° Northeast 429 494 17,700 -3,180 Descending Boston Center
00:03 42.4164 -74.5408 58° Northeast 412 474 14,400 -3,000 Descending Boston Center
00:04 42.4664 -74.4300 59° Northeast 383 441 11,800 -1,800 Descending Boston Center
00:05 42.5225 -74.3078 58° Northeast 365 420 11,000 -660 Descending Boston Center
00:06 42.5681 -74.2078 58° Northeast 338 389 10,500 -1,080 Descending Boston Center
00:07 42.6133 -74.1047 59° Northeast 297 342 8,800 -1,620 Descending Boston Center
00:08 42.6539 -74.0267 55° Northeast 287 330 7,300 -1,440 Descending Boston Center
00:09 42.7233 -73.9803 26° Northeast 270 311 6,000 -1,500 Descending Boston Center
00:10 42.7908 -73.9339 27° Northeast 265 305 4,400 -1,620 Descending Boston Center